createdAt,value
2022-12-11T00:00:50.376Z,10.88
2022-12-11T00:03:18.210Z,12.48
2022-12-11T00:05:46.220Z,11.18
2022-12-11T00:08:13.808Z,11.95
2022-12-11T00:10:47.585Z,10.95
2022-12-11T00:13:14.677Z,10.77
2022-12-11T00:15:41.472Z,12.48
2022-12-11T00:18:13.993Z,10.93
2022-12-11T00:20:41.201Z,11.30
2022-12-11T00:23:08.312Z,10.55
2022-12-11T00:25:35.095Z,11.23
2022-12-11T00:28:01.944Z,11.07
2022-12-11T00:30:28.739Z,11.48
2022-12-11T00:32:55.478Z,12.10
2022-12-11T00:35:22.283Z,10.98
2022-12-11T00:37:49.036Z,11.02
2022-12-11T00:40:15.822Z,11.80
2022-12-11T00:42:42.595Z,12.52
2022-12-11T00:45:10.375Z,13.18
2022-12-11T00:47:37.370Z,11.32
2022-12-11T00:50:04.730Z,13.82
2022-12-11T00:52:31.524Z,11.30
2022-12-11T00:54:58.285Z,13.88
2022-12-11T00:57:25.026Z,13.18
2022-12-11T00:59:51.780Z,13.00
2022-12-11T01:02:18.575Z,10.82
2022-12-11T01:04:45.324Z,13.13
2022-12-11T01:07:12.088Z,11.73
2022-12-11T01:09:57.221Z,11.85
2022-12-11T01:12:24.094Z,12.45
2022-12-11T01:14:51.500Z,13.43
2022-12-11T01:17:18.300Z,11.90
2022-12-11T01:19:45.118Z,11.50
2022-12-11T01:22:11.903Z,13.60
2022-12-11T01:24:38.671Z,12.02
2022-12-11T01:27:05.452Z,12.77
2022-12-11T01:29:32.793Z,11.85
2022-12-11T01:31:59.612Z,10.55
2022-12-11T01:34:30.298Z,14.07
2022-12-11T01:36:57.118Z,11.77
2022-12-11T01:39:23.888Z,10.77
2022-12-11T01:41:51.120Z,11.35
2022-12-11T01:44:17.815Z,13.80
2022-12-11T01:46:44.562Z,11.82
2022-12-11T01:49:15.446Z,11.48
2022-12-11T01:52:08.239Z,11.02
2022-12-11T01:54:35.497Z,12.23
2022-12-11T01:57:07.239Z,11.05
2022-12-11T01:59:38.282Z,11.02
2022-12-11T02:02:23.001Z,11.02
2022-12-11T02:04:49.971Z,12.32
2022-12-11T02:07:17.263Z,12.82
2022-12-11T02:09:47.003Z,12.40
2022-12-11T02:12:26.884Z,10.55
2022-12-11T02:15:17.730Z,10.10
2022-12-11T02:18:03.402Z,12.50
2022-12-11T02:20:59.732Z,11.93
2022-12-11T02:23:51.539Z,11.23
2022-12-11T02:27:09.718Z,11.60
2022-12-11T02:29:51.146Z,9.38
2022-12-11T02:32:42.734Z,10.07
2022-12-11T02:35:14.899Z,12.32
2022-12-11T02:37:45.317Z,11.13
2022-12-11T02:40:16.715Z,10.57
2022-12-11T02:42:46.894Z,11.27
2022-12-11T02:45:15.755Z,12.02
2022-12-11T02:47:44.959Z,12.07
2022-12-11T02:50:17.893Z,13.68
2022-12-11T02:52:46.565Z,12.32
2022-12-11T02:55:15.551Z,12.18
2022-12-11T02:57:51.657Z,13.05
2022-12-11T03:00:19.338Z,13.25
2022-12-11T03:02:46.432Z,12.90
2022-12-11T03:05:15.363Z,11.80
2022-12-11T03:07:44.256Z,12.93
2022-12-11T03:10:15.709Z,11.43
2022-12-11T03:12:53.077Z,11.57
2022-12-11T03:15:25.078Z,12.52
2022-12-11T03:18:25.256Z,12.18
2022-12-11T03:21:09.310Z,14.07
2022-12-11T03:23:51.233Z,12.75
2022-12-11T03:26:21.013Z,12.38
2022-12-11T03:28:59.854Z,13.27
2022-12-11T03:31:35.819Z,13.35
2022-12-11T03:34:11.207Z,13.00
2022-12-11T03:36:39.358Z,13.05
2022-12-11T03:39:18.775Z,13.63
2022-12-11T03:41:46.867Z,13.35
2022-12-11T03:44:14.190Z,14.55
2022-12-11T03:46:44.219Z,13.57
2022-12-11T03:49:21.081Z,12.30
2022-12-11T03:51:51.517Z,12.30
2022-12-11T03:54:19.469Z,11.57
2022-12-11T03:56:48.859Z,15.27
2022-12-11T03:59:15.688Z,15.02
2022-12-11T04:01:42.514Z,12.57
2022-12-11T04:04:09.437Z,15.07
2022-12-11T04:06:36.316Z,12.90
2022-12-11T04:09:03.326Z,13.23
2022-12-11T04:11:35.930Z,13.77
2022-12-11T04:14:31.843Z,13.95
2022-12-11T04:17:00.491Z,13.38
2022-12-11T04:19:46.224Z,13.25
2022-12-11T04:22:35.094Z,11.43
2022-12-11T04:25:03.392Z,11.32
2022-12-11T04:27:48.664Z,12.10
2022-12-11T04:30:26.914Z,14.02
2022-12-11T04:32:56.154Z,12.20
2022-12-11T04:35:23.521Z,11.85
2022-12-11T04:37:52.407Z,10.38
2022-12-11T04:40:20.919Z,11.95
2022-12-11T04:42:48.019Z,12.38
2022-12-11T04:45:15.514Z,11.85
2022-12-11T04:47:42.559Z,13.13
2022-12-11T04:50:14.287Z,10.45
2022-12-11T04:52:41.312Z,10.48
2022-12-11T04:55:09.152Z,11.25
2022-12-11T04:57:36.269Z,11.65
2022-12-11T05:00:09.968Z,11.77
2022-12-11T05:02:38.512Z,10.98
2022-12-11T05:05:09.580Z,11.55
2022-12-11T05:07:37.845Z,10.77
2022-12-11T05:10:06.600Z,9.70
2022-12-11T05:12:33.724Z,9.32
2022-12-11T05:15:00.470Z,10.57
2022-12-11T05:17:27.261Z,10.07
2022-12-11T05:19:54.240Z,9.38
2022-12-11T05:22:21.013Z,10.30
2022-12-11T05:24:47.786Z,10.60
2022-12-11T05:27:14.729Z,9.52
2022-12-11T05:29:42.119Z,8.93
2022-12-11T05:32:09.294Z,8.70
2022-12-11T05:34:36.120Z,9.40
2022-12-11T05:37:02.869Z,9.32
2022-12-11T06:02:23.334Z,6.68
2022-12-11T06:04:50.153Z,7.05
2022-12-11T06:07:17.006Z,8.18
2022-12-11T06:09:43.802Z,7.20
2022-12-11T06:12:10.520Z,7.55
2022-12-11T06:14:37.247Z,7.95
2022-12-11T06:17:03.971Z,7.95
2022-12-11T06:19:36.448Z,8.23
2022-12-11T06:22:03.866Z,9.48
2022-12-11T06:24:30.609Z,8.77
2022-12-11T06:26:57.336Z,8.55
2022-12-11T06:29:24.053Z,8.32
2022-12-11T06:31:50.788Z,8.75
2022-12-11T06:34:17.590Z,7.30
2022-12-11T06:36:44.338Z,6.97
2022-12-11T06:39:12.132Z,6.80
2022-12-11T06:41:38.892Z,6.97
2022-12-11T06:44:05.637Z,6.57
2022-12-11T06:46:32.334Z,6.60
2022-12-11T06:48:59.120Z,7.40
2022-12-11T06:51:25.855Z,6.55
2022-12-11T06:53:56.854Z,7.20
2022-12-11T06:56:24.706Z,6.50
2022-12-11T06:58:52.175Z,6.90
2022-12-11T07:01:27.892Z,6.82
2022-12-11T07:03:57.606Z,6.75
2022-12-11T07:06:26.069Z,6.13
2022-12-11T07:08:53.060Z,7.57
2022-12-11T07:11:21.048Z,6.85
2022-12-11T07:13:48.016Z,6.68
2022-12-11T07:16:16.344Z,6.93
2022-12-11T07:18:48.343Z,7.03
2022-12-11T07:21:15.885Z,7.30
2022-12-11T07:23:43.065Z,7.43
2022-12-11T07:26:17.106Z,7.20
2022-12-11T07:28:44.167Z,6.78
2022-12-11T07:31:14.865Z,9.30
2022-12-11T07:33:42.415Z,8.30
2022-12-11T07:36:12.738Z,8.70
2022-12-11T07:38:40.005Z,8.70
2022-12-11T07:41:11.400Z,7.60
2022-12-11T07:43:38.290Z,6.93
2022-12-11T07:46:14.304Z,6.85
2022-12-11T07:48:43.510Z,7.53
2022-12-11T07:51:32.363Z,8.32
2022-12-11T07:54:04.886Z,7.50
2022-12-11T07:56:32.894Z,7.78
2022-12-11T07:59:01.956Z,7.43
2022-12-11T08:01:31.608Z,7.45
2022-12-11T08:03:58.494Z,7.13
2022-12-11T08:06:31.540Z,7.38
2022-12-11T08:08:59.749Z,8.18
2022-12-11T08:11:27.115Z,7.47
2022-12-11T08:13:54.678Z,8.23
2022-12-11T08:16:22.870Z,7.20
2022-12-11T08:18:49.639Z,8.48
2022-12-11T08:21:22.977Z,8.30
2022-12-11T08:23:51.117Z,7.20
2022-12-11T08:26:27.746Z,8.68
2022-12-11T08:28:55.496Z,8.27
2022-12-11T08:31:22.580Z,7.47
2022-12-11T08:33:51.402Z,7.25
2022-12-11T08:36:21.500Z,7.20
2022-12-11T08:38:49.520Z,6.72
2022-12-11T08:41:26.409Z,7.00
2022-12-11T08:43:55.324Z,6.85
2022-12-11T08:46:27.340Z,6.25
2022-12-11T08:48:55.355Z,6.88
2022-12-11T08:51:26.037Z,6.53
2022-12-11T08:53:59.577Z,7.00
2022-12-11T08:56:27.857Z,6.82
2022-12-11T08:58:55.369Z,6.82
2022-12-11T09:01:25.931Z,6.60
2022-12-11T09:03:54.942Z,7.03
2022-12-11T09:06:25.797Z,6.57
2022-12-11T09:08:53.736Z,6.53
2022-12-11T09:11:27.653Z,6.97
2022-12-11T09:13:54.933Z,6.90
2022-12-11T09:16:25.001Z,6.80
2022-12-11T09:18:55.146Z,7.38
2022-12-11T09:21:26.172Z,6.65
2022-12-11T09:23:55.870Z,6.90
2022-12-11T09:26:23.655Z,5.88
2022-12-11T09:28:53.066Z,6.07
2022-12-11T09:31:33.031Z,7.35
2022-12-11T09:34:09.185Z,6.68
2022-12-11T09:36:38.321Z,6.93
2022-12-11T09:39:07.694Z,6.50
2022-12-11T09:41:54.773Z,6.00
2022-12-11T09:44:30.753Z,5.80
2022-12-11T09:46:58.388Z,6.35
2022-12-11T09:49:38.263Z,5.57
2022-12-11T09:52:15.793Z,5.65
2022-12-11T09:54:50.836Z,5.63
2022-12-11T09:57:46.323Z,5.97
2022-12-11T10:00:30.111Z,6.78
2022-12-11T10:03:11.993Z,5.75
2022-12-11T10:06:12.881Z,5.15
2022-12-11T10:09:00.710Z,5.50
2022-12-11T10:12:00.383Z,6.65
2022-12-11T10:14:55.265Z,5.70
2022-12-11T10:17:28.923Z,5.07
2022-12-11T10:20:21.965Z,5.47
2022-12-11T10:22:51.180Z,5.93
2022-12-11T10:25:30.097Z,5.47
2022-12-11T10:27:57.604Z,5.18
2022-12-11T10:30:37.870Z,6.43
2022-12-11T10:33:46.400Z,5.03
2022-12-11T10:36:19.383Z,5.70
2022-12-11T10:38:47.416Z,5.40
2022-12-11T10:41:33.861Z,5.50
2022-12-11T10:44:01.812Z,5.13
2022-12-11T10:46:32.194Z,5.15
2022-12-11T10:49:01.420Z,6.45
2022-12-11T10:51:31.077Z,7.05
2022-12-11T10:54:16.797Z,7.65
2022-12-11T10:56:48.310Z,6.97
2022-12-11T10:59:29.449Z,7.28
2022-12-11T11:01:57.575Z,7.90
2022-12-11T11:04:35.178Z,7.95
2022-12-11T11:07:16.955Z,7.60
2022-12-11T11:09:43.756Z,7.75
2022-12-11T11:12:27.222Z,8.40
2022-12-11T11:15:27.686Z,7.70
2022-12-11T11:18:26.952Z,8.10
2022-12-11T11:20:54.356Z,8.10
2022-12-11T11:23:22.454Z,9.00
2022-12-11T11:25:51.939Z,8.40
2022-12-11T11:28:24.903Z,8.95
2022-12-11T11:31:03.765Z,8.23
2022-12-11T11:33:32.827Z,8.20
2022-12-11T11:36:03.220Z,7.72
2022-12-11T11:38:46.428Z,8.13
2022-12-11T11:41:32.611Z,7.93
2022-12-11T11:44:05.165Z,8.02
2022-12-11T11:47:15.163Z,7.60
2022-12-11T11:50:04.224Z,8.52
2022-12-11T11:52:38.783Z,8.10
2022-12-11T11:55:22.425Z,8.05
2022-12-11T11:57:58.011Z,7.65
2022-12-11T12:00:33.655Z,6.53
2022-12-11T12:03:11.358Z,7.43
2022-12-11T12:05:53.264Z,7.63
2022-12-11T12:08:50.978Z,7.55
2022-12-11T12:11:39.029Z,7.90
2022-12-11T12:14:51.619Z,7.30
2022-12-11T12:17:41.235Z,6.32
2022-12-11T12:20:33.359Z,6.72
2022-12-11T12:23:38.281Z,5.82
2022-12-11T12:26:41.374Z,5.65
2022-12-11T12:29:27.529Z,6.22
2022-12-11T12:32:05.410Z,5.82
2022-12-11T12:34:56.852Z,6.60
2022-12-11T12:37:45.746Z,6.13
2022-12-11T12:40:32.608Z,6.18
2022-12-11T12:43:33.414Z,5.88
2022-12-11T12:46:41.029Z,5.57
2022-12-11T12:49:17.282Z,6.78
2022-12-11T12:51:44.818Z,6.45
2022-12-11T12:54:17.300Z,5.90
2022-12-11T12:56:46.936Z,5.32
2022-12-11T12:59:40.002Z,4.93
2022-12-11T13:02:16.445Z,5.90
2022-12-11T13:04:55.965Z,5.65
2022-12-11T13:07:29.588Z,5.38
2022-12-11T13:10:27.495Z,5.50
2022-12-11T13:12:54.440Z,5.53
2022-12-11T13:15:24.159Z,4.80
2022-12-11T13:17:51.394Z,5.22
2022-12-11T13:20:22.081Z,4.55
2022-12-11T13:22:57.116Z,5.00
2022-12-11T13:25:29.457Z,5.03
2022-12-11T13:31:22.820Z,4.78
2022-12-11T13:33:54.066Z,5.25
2022-12-11T13:36:24.602Z,4.55
2022-12-11T13:39:14.896Z,5.05
2022-12-11T13:41:48.138Z,5.72
2022-12-11T13:44:32.842Z,5.22
2022-12-11T13:47:03.099Z,4.38
2022-12-11T13:49:37.509Z,5.47
2022-12-11T13:52:05.966Z,5.43
2022-12-11T13:54:38.945Z,5.40
2022-12-11T13:57:08.724Z,5.97
2022-12-11T13:59:41.913Z,4.80
2022-12-11T14:02:30.764Z,5.63
2022-12-11T14:05:03.145Z,5.03
2022-12-11T14:10:28.019Z,6.22
2022-12-11T14:13:04.394Z,5.80
2022-12-11T14:15:33.695Z,6.55
2022-12-11T14:18:01.232Z,5.85
2022-12-11T14:20:34.272Z,6.43
2022-12-11T14:23:21.720Z,5.40
2022-12-11T14:26:20.933Z,5.60
2022-12-11T14:28:47.712Z,5.43
2022-12-11T14:31:21.011Z,5.75
2022-12-11T14:33:58.795Z,6.05
2022-12-11T14:36:27.133Z,5.13
2022-12-11T14:39:04.633Z,5.93
2022-12-11T14:41:57.530Z,6.18
2022-12-11T14:44:29.113Z,6.20
2022-12-11T14:47:04.460Z,5.40
2022-12-11T14:50:03.927Z,6.18
2022-12-11T14:52:40.570Z,5.40
2022-12-11T14:55:26.128Z,4.85
2022-12-11T14:57:57.605Z,4.97
2022-12-11T15:00:30.319Z,5.60
2022-12-11T15:03:06.458Z,5.03
2022-12-11T15:05:40.652Z,7.72
2022-12-11T15:08:10.809Z,5.57
2022-12-11T15:11:05.609Z,5.82
2022-12-11T15:13:34.757Z,6.03
2022-12-11T15:16:02.682Z,5.97
2022-12-11T15:18:40.808Z,5.93
2022-12-11T15:21:10.164Z,7.78
2022-12-11T15:23:55.193Z,5.25
2022-12-11T15:26:33.902Z,5.32
2022-12-11T15:29:03.073Z,6.40
2022-12-11T15:31:35.127Z,5.50
2022-12-11T15:34:02.515Z,5.45
2022-12-11T15:36:36.882Z,5.30
2022-12-11T15:39:09.344Z,5.07
2022-12-11T15:41:36.475Z,5.38
2022-12-11T15:44:04.646Z,5.30
2022-12-11T15:46:36.577Z,6.35
2022-12-11T15:49:12.658Z,5.97
2022-12-11T15:51:43.170Z,6.78
2022-12-11T15:54:10.318Z,6.28
2022-12-11T15:56:37.033Z,7.80
2022-12-11T15:59:06.909Z,5.47
2022-12-11T16:01:34.144Z,5.80
2022-12-11T16:04:04.866Z,6.13
2022-12-11T16:06:33.065Z,6.40
2022-12-11T16:08:59.895Z,8.23
2022-12-11T16:11:26.958Z,7.22
2022-12-11T16:13:53.658Z,6.90
2022-12-11T16:16:20.407Z,7.32
2022-12-11T16:18:47.170Z,11.73
2022-12-11T16:21:18.322Z,7.70
2022-12-11T16:23:48.141Z,7.32
2022-12-11T16:26:15.661Z,6.18
2022-12-11T16:28:43.127Z,6.22
2022-12-11T16:31:12.359Z,5.47
2022-12-11T16:33:39.635Z,5.38
2022-12-11T16:36:15.035Z,6.88
2022-12-11T16:38:53.225Z,6.20
2022-12-11T16:41:22.575Z,7.10
2022-12-11T16:43:49.517Z,5.80
2022-12-11T16:46:19.214Z,6.10
2022-12-11T16:48:46.228Z,5.63
2022-12-11T16:51:13.357Z,6.03
2022-12-11T16:53:40.775Z,6.22
2022-12-11T16:56:08.467Z,6.35
2022-12-11T16:58:35.648Z,6.82
2022-12-11T17:01:11.848Z,6.03
2022-12-11T17:03:39.776Z,6.60
2022-12-11T17:06:10.008Z,7.25
2022-12-11T17:08:37.311Z,6.88
2022-12-11T17:11:10.381Z,9.82
2022-12-11T17:13:37.941Z,7.30
2022-12-11T17:16:11.677Z,7.03
2022-12-11T17:18:38.749Z,7.38
2022-12-11T17:21:17.735Z,6.72
2022-12-11T17:23:45.276Z,7.65
2022-12-11T17:26:12.384Z,7.03
2022-12-11T17:28:39.734Z,7.10
2022-12-11T17:31:11.168Z,7.53
2022-12-11T17:33:38.324Z,7.10
2022-12-11T17:36:07.317Z,11.65
2022-12-11T17:38:34.400Z,10.13
2022-12-11T17:41:05.597Z,9.32
2022-12-11T17:43:32.285Z,8.20
2022-12-11T17:45:59.018Z,6.72
2022-12-11T17:48:25.871Z,7.20
2022-12-11T17:50:53.622Z,11.18
2022-12-11T17:53:21.852Z,10.55
2022-12-11T17:55:49.679Z,8.98
2022-12-11T17:58:21.695Z,8.73
2022-12-11T18:00:54.127Z,8.07
2022-12-11T18:03:21.972Z,9.02
2022-12-11T18:05:52.093Z,9.57
2022-12-11T18:08:23.217Z,7.65
2022-12-11T18:10:49.938Z,8.85
2022-12-11T18:13:16.731Z,8.10
2022-12-11T18:15:43.481Z,8.70
2022-12-11T18:18:10.692Z,9.73
2022-12-11T18:20:38.791Z,10.00
2022-12-11T18:23:06.197Z,11.48
2022-12-11T18:25:32.975Z,11.27
2022-12-11T18:28:00.086Z,10.50
2022-12-11T18:30:27.880Z,10.07
2022-12-11T18:32:54.620Z,10.32
2022-12-11T18:35:21.542Z,12.57
2022-12-11T18:37:48.295Z,10.50
2022-12-11T18:40:15.053Z,9.88
2022-12-11T18:42:41.821Z,9.25
2022-12-11T18:45:10.084Z,10.27
2022-12-11T18:47:37.277Z,9.55
2022-12-11T18:50:07.955Z,9.73
2022-12-11T18:52:35.068Z,9.18
2022-12-11T18:55:01.830Z,9.88
2022-12-11T18:57:28.582Z,9.55
2022-12-11T18:59:55.383Z,10.50
2022-12-11T19:02:22.686Z,9.98
2022-12-11T19:04:49.586Z,13.50
2022-12-11T19:07:16.356Z,12.80
2022-12-11T19:09:47.752Z,10.55
2022-12-11T19:12:15.350Z,10.27
2022-12-11T19:14:42.187Z,15.60
2022-12-11T19:17:08.910Z,12.43
2022-12-11T19:19:35.917Z,10.15
2022-12-11T19:22:03.570Z,12.68
2022-12-11T19:24:30.367Z,12.77
2022-12-11T19:26:57.610Z,10.73
2022-12-11T19:29:32.402Z,9.38
2022-12-11T19:32:01.282Z,10.02
2022-12-11T19:34:28.399Z,9.23
2022-12-11T19:36:56.012Z,9.82
2022-12-11T19:39:22.764Z,9.93
2022-12-11T19:41:49.863Z,9.73
2022-12-11T19:44:16.592Z,12.85
2022-12-11T19:46:43.302Z,18.67
2022-12-11T19:49:11.740Z,13.57
2022-12-11T19:51:41.045Z,12.82
2022-12-11T19:54:12.363Z,12.63
2022-12-11T19:56:39.153Z,11.33
2022-12-11T19:59:08.466Z,14.02
2022-12-11T20:01:37.886Z,12.68
2022-12-11T20:04:10.040Z,12.35
2022-12-11T20:06:40.309Z,11.95
2022-12-11T20:09:11.648Z,11.63
2022-12-11T20:11:43.972Z,11.53
2022-12-11T20:17:10.132Z,11.13
2022-12-11T20:19:32.579Z,11.57
2022-12-11T20:21:59.512Z,11.45
2022-12-11T20:24:26.405Z,11.50
2022-12-11T20:26:54.100Z,11.73
2022-12-11T20:29:20.940Z,10.40
2022-12-11T20:31:50.835Z,11.30
2022-12-11T20:34:17.787Z,12.10
2022-12-11T20:36:44.504Z,10.90
2022-12-11T20:39:11.235Z,11.13
2022-12-11T20:41:37.941Z,11.15
2022-12-11T20:44:04.706Z,10.13
2022-12-11T20:46:31.377Z,10.98
2022-12-11T20:48:58.760Z,10.65
2022-12-11T20:51:26.725Z,13.07
2022-12-11T20:53:59.028Z,13.77
2022-12-11T20:56:29.855Z,12.77
2022-12-11T20:58:58.869Z,12.13
2022-12-11T21:01:29.339Z,11.25
2022-12-11T21:03:56.502Z,11.00
2022-12-11T21:06:30.813Z,10.68
2022-12-11T21:08:59.674Z,11.00
2022-12-11T21:11:26.705Z,10.40
2022-12-11T21:13:53.794Z,10.73
2022-12-11T21:16:20.697Z,10.75
2022-12-11T21:18:48.172Z,11.25
2022-12-11T21:21:15.980Z,11.07
2022-12-11T21:23:43.453Z,12.23
2022-12-11T21:26:10.791Z,10.73
2022-12-11T21:28:37.486Z,9.95
2022-12-11T21:31:08.571Z,12.23
2022-12-11T21:33:35.988Z,10.40
2022-12-11T21:36:06.097Z,12.63
2022-12-11T21:38:33.584Z,11.77
2022-12-11T21:41:13.450Z,12.05
2022-12-11T21:44:03.229Z,11.38
2022-12-11T21:46:29.093Z,10.18
2022-12-11T21:48:55.956Z,10.77
2022-12-11T21:51:32.433Z,10.68
2022-12-11T21:54:03.480Z,10.18
2022-12-11T21:56:31.600Z,10.85
2022-12-11T21:58:58.450Z,11.27
2022-12-11T22:01:34.886Z,11.25
2022-12-11T22:04:02.532Z,11.25
2022-12-11T22:06:29.295Z,11.55
2022-12-11T22:08:56.013Z,13.27
2022-12-11T22:11:27.591Z,12.60
2022-12-11T22:13:54.679Z,12.40
2022-12-11T22:16:21.486Z,11.52
2022-12-11T22:18:48.343Z,11.32
2022-12-11T22:21:15.775Z,11.65
2022-12-11T22:23:44.497Z,11.55
2022-12-11T22:26:24.235Z,10.70
2022-12-11T22:28:51.588Z,11.90
2022-12-11T22:31:22.027Z,11.35
2022-12-11T22:33:50.491Z,10.90
2022-12-11T22:36:20.327Z,9.45
2022-12-11T22:38:47.663Z,11.63
2022-12-11T22:41:27.574Z,10.73
2022-12-11T22:43:55.223Z,11.02
2022-12-11T22:46:25.474Z,11.07
2022-12-11T22:48:52.347Z,11.40
2022-12-11T22:51:19.698Z,11.23
2022-12-11T22:53:46.676Z,10.68
2022-12-11T22:56:14.649Z,9.50
2022-12-11T22:58:42.392Z,10.63
2022-12-11T23:01:16.308Z,11.07
2022-12-11T23:03:43.072Z,10.73
2022-12-11T23:06:12.946Z,10.82
2022-12-11T23:08:41.537Z,10.25
2022-12-11T23:11:19.198Z,10.32
2022-12-11T23:13:46.012Z,11.70
2022-12-11T23:16:13.100Z,11.55
2022-12-11T23:18:40.638Z,10.48
2022-12-11T23:21:08.507Z,11.10
2022-12-11T23:23:35.724Z,10.35
2022-12-11T23:26:03.292Z,10.45
2022-12-11T23:28:29.988Z,9.65
2022-12-11T23:30:56.698Z,10.50
2022-12-11T23:33:23.701Z,10.90
2022-12-11T23:35:50.465Z,11.65
2022-12-11T23:38:17.667Z,11.13
2022-12-11T23:40:44.352Z,10.32
2022-12-11T23:43:11.319Z,10.60
2022-12-11T23:45:38.012Z,11.57
2022-12-11T23:48:04.772Z,11.32
2022-12-11T23:50:32.793Z,10.82
2022-12-11T23:52:59.512Z,11.68
2022-12-11T23:55:27.293Z,9.88
2022-12-11T23:57:54.385Z,9.80
